sensor_id;sensor_type;location;lat;lon;timestamp;P1;durP1;ratioP1;P2;durP2;ratioP2
24008;SDS011;12217;50.792;4.372;2022-08-25T00:03:38;5.45;;;4.97;;
24008;SDS011;12217;50.792;4.372;2022-08-25T00:06:05;4.80;;;4.40;;
24008;SDS011;12217;50.792;4.372;2022-08-25T00:08:31;8.73;;;5.00;;
24008;SDS011;12217;50.792;4.372;2022-08-25T00:10:59;6.18;;;4.40;;
24008;SDS011;12217;50.792;4.372;2022-08-25T00:13:26;7.40;;;5.32;;
24008;SDS011;12217;50.792;4.372;2022-08-25T00:15:53;7.22;;;5.10;;
24008;SDS011;12217;50.792;4.372;2022-08-25T00:18:19;8.25;;;5.60;;
24008;SDS011;12217;50.792;4.372;2022-08-25T00:20:45;6.28;;;4.93;;
24008;SDS011;12217;50.792;4.372;2022-08-25T00:23:12;5.45;;;5.00;;
24008;SDS011;12217;50.792;4.372;2022-08-25T00:25:38;7.63;;;5.10;;
24008;SDS011;12217;50.792;4.372;2022-08-25T00:28:03;7.00;;;5.30;;
24008;SDS011;12217;50.792;4.372;2022-08-25T00:30:29;6.07;;;5.25;;
24008;SDS011;12217;50.792;4.372;2022-08-25T00:32:55;6.00;;;5.00;;
24008;SDS011;12217;50.792;4.372;2022-08-25T00:35:21;6.00;;;5.32;;
24008;SDS011;12217;50.792;4.372;2022-08-25T00:37:47;6.38;;;5.35;;
24008;SDS011;12217;50.792;4.372;2022-08-25T00:40:13;5.57;;;5.07;;
24008;SDS011;12217;50.792;4.372;2022-08-25T00:42:39;6.90;;;5.55;;
24008;SDS011;12217;50.792;4.372;2022-08-25T00:45:06;7.70;;;5.88;;
24008;SDS011;12217;50.792;4.372;2022-08-25T00:47:33;8.65;;;5.60;;
24008;SDS011;12217;50.792;4.372;2022-08-25T00:50:00;7.30;;;5.95;;
24008;SDS011;12217;50.792;4.372;2022-08-25T00:52:40;6.68;;;5.53;;
24008;SDS011;12217;50.792;4.372;2022-08-25T00:55:13;6.43;;;5.72;;
24008;SDS011;12217;50.792;4.372;2022-08-25T00:57:52;6.30;;;5.65;;
24008;SDS011;12217;50.792;4.372;2022-08-25T01:00:32;8.95;;;6.25;;
24008;SDS011;12217;50.792;4.372;2022-08-25T01:03:00;7.68;;;6.60;;
24008;SDS011;12217;50.792;4.372;2022-08-25T01:05:26;7.50;;;6.65;;
24008;SDS011;12217;50.792;4.372;2022-08-25T01:07:52;8.43;;;6.40;;
24008;SDS011;12217;50.792;4.372;2022-08-25T01:10:20;10.13;;;6.65;;
24008;SDS011;12217;50.792;4.372;2022-08-25T01:12:47;6.85;;;6.15;;
24008;SDS011;12217;50.792;4.372;2022-08-25T01:15:14;6.88;;;5.60;;
24008;SDS011;12217;50.792;4.372;2022-08-25T01:17:45;7.78;;;5.97;;
24008;SDS011;12217;50.792;4.372;2022-08-25T01:20:13;6.10;;;5.60;;
24008;SDS011;12217;50.792;4.372;2022-08-25T01:22:40;7.03;;;6.03;;
24008;SDS011;12217;50.792;4.372;2022-08-25T01:25:12;6.53;;;5.93;;
24008;SDS011;12217;50.792;4.372;2022-08-25T01:27:53;7.63;;;5.82;;
24008;SDS011;12217;50.792;4.372;2022-08-25T01:30:19;6.88;;;6.18;;
24008;SDS011;12217;50.792;4.372;2022-08-25T01:32:45;8.10;;;5.85;;
24008;SDS011;12217;50.792;4.372;2022-08-25T01:35:11;6.90;;;6.20;;
24008;SDS011;12217;50.792;4.372;2022-08-25T01:37:38;6.35;;;5.72;;
24008;SDS011;12217;50.792;4.372;2022-08-25T01:40:04;6.00;;;5.50;;
24008;SDS011;12217;50.792;4.372;2022-08-25T01:45:39;6.15;;;5.55;;
24008;SDS011;12217;50.792;4.372;2022-08-25T01:48:06;6.85;;;5.60;;
24008;SDS011;12217;50.792;4.372;2022-08-25T01:50:32;6.90;;;5.50;;
24008;SDS011;12217;50.792;4.372;2022-08-25T01:52:59;6.60;;;5.93;;
24008;SDS011;12217;50.792;4.372;2022-08-25T01:55:31;7.90;;;5.90;;
24008;SDS011;12217;50.792;4.372;2022-08-25T01:58:26;5.80;;;5.13;;
24008;SDS011;12217;50.792;4.372;2022-08-25T02:00:54;6.47;;;5.13;;
24008;SDS011;12217;50.792;4.372;2022-08-25T02:03:22;6.20;;;5.60;;
24008;SDS011;12217;50.792;4.372;2022-08-25T02:05:49;6.22;;;5.63;;
24008;SDS011;12217;50.792;4.372;2022-08-25T02:08:15;6.03;;;5.40;;
24008;SDS011;12217;50.792;4.372;2022-08-25T02:10:42;7.32;;;5.68;;
24008;SDS011;12217;50.792;4.372;2022-08-25T02:13:08;7.40;;;5.45;;
24008;SDS011;12217;50.792;4.372;2022-08-25T02:15:38;5.97;;;5.38;;
24008;SDS011;12217;50.792;4.372;2022-08-25T02:18:05;6.15;;;5.53;;
24008;SDS011;12217;50.792;4.372;2022-08-25T02:20:31;6.82;;;5.28;;
24008;SDS011;12217;50.792;4.372;2022-08-25T02:22:57;7.88;;;5.30;;
24008;SDS011;12217;50.792;4.372;2022-08-25T02:25:22;5.93;;;5.38;;
24008;SDS011;12217;50.792;4.372;2022-08-25T02:27:48;6.10;;;5.50;;
24008;SDS011;12217;50.792;4.372;2022-08-25T02:30:14;6.85;;;6.00;;
24008;SDS011;12217;50.792;4.372;2022-08-25T02:32:41;5.93;;;5.50;;
24008;SDS011;12217;50.792;4.372;2022-08-25T02:35:07;5.30;;;4.90;;
24008;SDS011;12217;50.792;4.372;2022-08-25T02:37:33;6.20;;;5.03;;
24008;SDS011;12217;50.792;4.372;2022-08-25T02:40:00;8.15;;;5.38;;
24008;SDS011;12217;50.792;4.372;2022-08-25T02:42:26;6.53;;;4.95;;
24008;SDS011;12217;50.792;4.372;2022-08-25T02:44:52;6.32;;;4.90;;
24008;SDS011;12217;50.792;4.372;2022-08-25T02:47:18;6.72;;;5.22;;
24008;SDS011;12217;50.792;4.372;2022-08-25T02:49:44;5.75;;;5.22;;
24008;SDS011;12217;50.792;4.372;2022-08-25T02:52:10;6.40;;;5.40;;
24008;SDS011;12217;50.792;4.372;2022-08-25T02:54:35;5.97;;;4.65;;
24008;SDS011;12217;50.792;4.372;2022-08-25T02:57:02;6.18;;;4.55;;
24008;SDS011;12217;50.792;4.372;2022-08-25T02:59:27;6.50;;;4.45;;
24008;SDS011;12217;50.792;4.372;2022-08-25T03:01:53;5.28;;;4.70;;
24008;SDS011;12217;50.792;4.372;2022-08-25T03:04:19;9.10;;;4.22;;
24008;SDS011;12217;50.792;4.372;2022-08-25T03:06:45;6.38;;;4.20;;
24008;SDS011;12217;50.792;4.372;2022-08-25T03:09:11;5.70;;;4.30;;
24008;SDS011;12217;50.792;4.372;2022-08-25T03:11:38;6.53;;;4.10;;
24008;SDS011;12217;50.792;4.372;2022-08-25T03:14:05;6.47;;;4.20;;
24008;SDS011;12217;50.792;4.372;2022-08-25T03:16:32;5.70;;;4.00;;
24008;SDS011;12217;50.792;4.372;2022-08-25T03:18:58;9.30;;;4.45;;
24008;SDS011;12217;50.792;4.372;2022-08-25T03:21:24;7.20;;;3.97;;
24008;SDS011;12217;50.792;4.372;2022-08-25T03:23:50;4.20;;;3.80;;
24008;SDS011;12217;50.792;4.372;2022-08-25T03:26:16;6.85;;;4.20;;
24008;SDS011;12217;50.792;4.372;2022-08-25T03:29:00;6.80;;;4.18;;
24008;SDS011;12217;50.792;4.372;2022-08-25T03:31:30;7.53;;;3.88;;
24008;SDS011;12217;50.792;4.372;2022-08-25T03:33:57;4.95;;;3.95;;
24008;SDS011;12217;50.792;4.372;2022-08-25T03:36:23;8.00;;;4.45;;
24008;SDS011;12217;50.792;4.372;2022-08-25T03:38:50;6.63;;;4.05;;
24008;SDS011;12217;50.792;4.372;2022-08-25T03:41:18;9.25;;;4.28;;
24008;SDS011;12217;50.792;4.372;2022-08-25T03:43:46;7.40;;;4.10;;
24008;SDS011;12217;50.792;4.372;2022-08-25T03:46:19;4.25;;;3.83;;
24008;SDS011;12217;50.792;4.372;2022-08-25T03:48:47;7.60;;;4.00;;
24008;SDS011;12217;50.792;4.372;2022-08-25T03:51:24;4.00;;;3.40;;
24008;SDS011;12217;50.792;4.372;2022-08-25T03:53:51;5.35;;;3.70;;
24008;SDS011;12217;50.792;4.372;2022-08-25T03:56:17;6.18;;;3.85;;
24008;SDS011;12217;50.792;4.372;2022-08-25T03:58:43;5.75;;;3.30;;
24008;SDS011;12217;50.792;4.372;2022-08-25T04:01:09;7.57;;;3.42;;
24008;SDS011;12217;50.792;4.372;2022-08-25T04:03:35;4.25;;;3.45;;
24008;SDS011;12217;50.792;4.372;2022-08-25T04:06:02;5.72;;;3.55;;
24008;SDS011;12217;50.792;4.372;2022-08-25T04:08:29;5.75;;;3.30;;
24008;SDS011;12217;50.792;4.372;2022-08-25T04:10:54;5.55;;;3.80;;
24008;SDS011;12217;50.792;4.372;2022-08-25T04:13:20;4.95;;;3.97;;
24008;SDS011;12217;50.792;4.372;2022-08-25T04:15:47;6.18;;;3.58;;
24008;SDS011;12217;50.792;4.372;2022-08-25T04:18:12;9.95;;;5.18;;
24008;SDS011;12217;50.792;4.372;2022-08-25T04:20:41;7.40;;;4.88;;
24008;SDS011;12217;50.792;4.372;2022-08-25T04:23:08;8.60;;;5.03;;
24008;SDS011;12217;50.792;4.372;2022-08-25T04:25:34;5.75;;;4.47;;
24008;SDS011;12217;50.792;4.372;2022-08-25T04:30:33;8.70;;;5.05;;
24008;SDS011;12217;50.792;4.372;2022-08-25T04:32:59;7.80;;;4.93;;
24008;SDS011;12217;50.792;4.372;2022-08-25T04:35:24;7.72;;;5.10;;
24008;SDS011;12217;50.792;4.372;2022-08-25T04:37:50;7.90;;;4.88;;
24008;SDS011;12217;50.792;4.372;2022-08-25T04:40:16;8.82;;;4.88;;
24008;SDS011;12217;50.792;4.372;2022-08-25T04:42:41;8.10;;;4.85;;
24008;SDS011;12217;50.792;4.372;2022-08-25T04:45:08;8.48;;;4.47;;
24008;SDS011;12217;50.792;4.372;2022-08-25T04:47:35;6.93;;;4.47;;
24008;SDS011;12217;50.792;4.372;2022-08-25T04:50:05;7.13;;;4.47;;
24008;SDS011;12217;50.792;4.372;2022-08-25T04:52:31;5.97;;;3.90;;
24008;SDS011;12217;50.792;4.372;2022-08-25T04:54:57;7.05;;;4.05;;
24008;SDS011;12217;50.792;4.372;2022-08-25T04:57:24;5.95;;;3.65;;
24008;SDS011;12217;50.792;4.372;2022-08-25T04:59:50;6.70;;;3.40;;
24008;SDS011;12217;50.792;4.372;2022-08-25T05:02:16;5.45;;;3.88;;
24008;SDS011;12217;50.792;4.372;2022-08-25T05:04:41;4.78;;;3.83;;
24008;SDS011;12217;50.792;4.372;2022-08-25T05:07:07;4.45;;;3.47;;
24008;SDS011;12217;50.792;4.372;2022-08-25T05:09:33;5.78;;;3.80;;
24008;SDS011;12217;50.792;4.372;2022-08-25T05:12:02;4.60;;;3.72;;
24008;SDS011;12217;50.792;4.372;2022-08-25T05:14:28;6.60;;;3.60;;
24008;SDS011;12217;50.792;4.372;2022-08-25T05:16:54;6.07;;;3.22;;
24008;SDS011;12217;50.792;4.372;2022-08-25T05:19:20;5.45;;;3.63;;
24008;SDS011;12217;50.792;4.372;2022-08-25T05:21:46;4.13;;;3.72;;
24008;SDS011;12217;50.792;4.372;2022-08-25T05:24:12;4.65;;;4.20;;
24008;SDS011;12217;50.792;4.372;2022-08-25T05:26:37;5.70;;;3.90;;
24008;SDS011;12217;50.792;4.372;2022-08-25T05:29:03;3.90;;;3.40;;
24008;SDS011;12217;50.792;4.372;2022-08-25T05:31:29;5.30;;;4.05;;
24008;SDS011;12217;50.792;4.372;2022-08-25T05:33:56;10.20;;;4.00;;
24008;SDS011;12217;50.792;4.372;2022-08-25T05:36:23;5.78;;;3.80;;
24008;SDS011;12217;50.792;4.372;2022-08-25T05:38:50;5.50;;;4.15;;
24008;SDS011;12217;50.792;4.372;2022-08-25T05:41:18;7.03;;;3.80;;
24008;SDS011;12217;50.792;4.372;2022-08-25T05:43:46;7.60;;;4.10;;
24008;SDS011;12217;50.792;4.372;2022-08-25T05:46:13;5.32;;;4.05;;
24008;SDS011;12217;50.792;4.372;2022-08-25T05:48:40;5.05;;;3.78;;
24008;SDS011;12217;50.792;4.372;2022-08-25T05:51:07;5.70;;;4.18;;
24008;SDS011;12217;50.792;4.372;2022-08-25T05:53:34;6.03;;;4.10;;
24008;SDS011;12217;50.792;4.372;2022-08-25T05:56:01;7.80;;;3.67;;
24008;SDS011;12217;50.792;4.372;2022-08-25T05:58:28;6.65;;;3.72;;
24008;SDS011;12217;50.792;4.372;2022-08-25T06:00:56;6.35;;;4.35;;
24008;SDS011;12217;50.792;4.372;2022-08-25T06:03:42;6.20;;;3.83;;
24008;SDS011;12217;50.792;4.372;2022-08-25T06:06:08;7.35;;;3.78;;
24008;SDS011;12217;50.792;4.372;2022-08-25T06:08:34;5.15;;;3.45;;
24008;SDS011;12217;50.792;4.372;2022-08-25T06:11:00;4.05;;;3.65;;
24008;SDS011;12217;50.792;4.372;2022-08-25T06:13:25;8.55;;;3.60;;
24008;SDS011;12217;50.792;4.372;2022-08-25T06:15:55;4.90;;;3.30;;
24008;SDS011;12217;50.792;4.372;2022-08-25T06:18:22;9.65;;;3.50;;
24008;SDS011;12217;50.792;4.372;2022-08-25T06:20:48;5.68;;;3.70;;
24008;SDS011;12217;50.792;4.372;2022-08-25T06:23:13;4.85;;;3.17;;
24008;SDS011;12217;50.792;4.372;2022-08-25T06:25:40;9.18;;;3.63;;
24008;SDS011;12217;50.792;4.372;2022-08-25T06:28:05;6.60;;;3.47;;
24008;SDS011;12217;50.792;4.372;2022-08-25T06:30:31;7.38;;;3.78;;
24008;SDS011;12217;50.792;4.372;2022-08-25T06:32:57;6.03;;;3.25;;
24008;SDS011;12217;50.792;4.372;2022-08-25T06:35:22;4.93;;;3.13;;
24008;SDS011;12217;50.792;4.372;2022-08-25T06:37:48;5.25;;;3.60;;
24008;SDS011;12217;50.792;4.372;2022-08-25T06:40:14;5.18;;;3.53;;
24008;SDS011;12217;50.792;4.372;2022-08-25T06:42:40;4.95;;;3.13;;
24008;SDS011;12217;50.792;4.372;2022-08-25T06:45:06;3.40;;;3.10;;
24008;SDS011;12217;50.792;4.372;2022-08-25T06:47:32;5.88;;;3.20;;
24008;SDS011;12217;50.792;4.372;2022-08-25T06:49:58;5.88;;;3.70;;
24008;SDS011;12217;50.792;4.372;2022-08-25T06:52:24;3.22;;;2.83;;
24008;SDS011;12217;50.792;4.372;2022-08-25T06:54:49;6.88;;;3.22;;
24008;SDS011;12217;50.792;4.372;2022-08-25T06:57:17;7.85;;;4.03;;
24008;SDS011;12217;50.792;4.372;2022-08-25T06:59:43;3.70;;;3.03;;
24008;SDS011;12217;50.792;4.372;2022-08-25T07:02:08;4.20;;;2.95;;
24008;SDS011;12217;50.792;4.372;2022-08-25T07:04:34;4.93;;;3.22;;
24008;SDS011;12217;50.792;4.372;2022-08-25T07:07:01;8.27;;;3.60;;
24008;SDS011;12217;50.792;4.372;2022-08-25T07:09:27;7.35;;;3.65;;
24008;SDS011;12217;50.792;4.372;2022-08-25T07:11:53;6.50;;;3.67;;
24008;SDS011;12217;50.792;4.372;2022-08-25T07:14:19;6.90;;;3.85;;
24008;SDS011;12217;50.792;4.372;2022-08-25T07:16:46;6.47;;;4.15;;
24008;SDS011;12217;50.792;4.372;2022-08-25T07:19:12;6.50;;;4.05;;
24008;SDS011;12217;50.792;4.372;2022-08-25T07:21:39;6.95;;;3.88;;
24008;SDS011;12217;50.792;4.372;2022-08-25T07:24:07;5.82;;;3.88;;
24008;SDS011;12217;50.792;4.372;2022-08-25T07:26:35;7.28;;;3.67;;
24008;SDS011;12217;50.792;4.372;2022-08-25T07:29:03;5.25;;;4.10;;
24008;SDS011;12217;50.792;4.372;2022-08-25T07:31:31;7.30;;;3.88;;
24008;SDS011;12217;50.792;4.372;2022-08-25T07:33:56;7.55;;;3.47;;
24008;SDS011;12217;50.792;4.372;2022-08-25T07:36:41;4.97;;;3.33;;
24008;SDS011;12217;50.792;4.372;2022-08-25T07:39:07;8.82;;;3.40;;
24008;SDS011;12217;50.792;4.372;2022-08-25T07:41:35;12.23;;;3.30;;
24008;SDS011;12217;50.792;4.372;2022-08-25T07:44:02;4.75;;;3.15;;
24008;SDS011;12217;50.792;4.372;2022-08-25T07:46:29;8.68;;;3.22;;
24008;SDS011;12217;50.792;4.372;2022-08-25T07:48:54;10.45;;;3.38;;
24008;SDS011;12217;50.792;4.372;2022-08-25T07:51:20;3.90;;;3.20;;
24008;SDS011;12217;50.792;4.372;2022-08-25T07:53:46;5.00;;;3.50;;
24008;SDS011;12217;50.792;4.372;2022-08-25T07:56:12;13.23;;;3.40;;
24008;SDS011;12217;50.792;4.372;2022-08-25T07:58:40;9.18;;;3.00;;
24008;SDS011;12217;50.792;4.372;2022-08-25T08:01:07;9.52;;;3.50;;
24008;SDS011;12217;50.792;4.372;2022-08-25T08:03:41;5.25;;;3.10;;
24008;SDS011;12217;50.792;4.372;2022-08-25T08:06:07;4.07;;;3.30;;
24008;SDS011;12217;50.792;4.372;2022-08-25T08:08:36;5.55;;;3.17;;
24008;SDS011;12217;50.792;4.372;2022-08-25T08:11:02;6.93;;;4.15;;
24008;SDS011;12217;50.792;4.372;2022-08-25T08:13:28;9.70;;;3.20;;
24008;SDS011;12217;50.792;4.372;2022-08-25T08:15:54;5.57;;;3.40;;
24008;SDS011;12217;50.792;4.372;2022-08-25T08:18:20;9.00;;;3.70;;
24008;SDS011;12217;50.792;4.372;2022-08-25T08:20:46;4.38;;;2.97;;
24008;SDS011;12217;50.792;4.372;2022-08-25T08:23:12;4.80;;;3.30;;
24008;SDS011;12217;50.792;4.372;2022-08-25T08:25:38;8.90;;;3.20;;
24008;SDS011;12217;50.792;4.372;2022-08-25T08:28:04;6.40;;;3.17;;
24008;SDS011;12217;50.792;4.372;2022-08-25T08:30:30;8.85;;;3.40;;
24008;SDS011;12217;50.792;4.372;2022-08-25T08:32:56;8.60;;;3.20;;
24008;SDS011;12217;50.792;4.372;2022-08-25T08:35:21;6.57;;;3.28;;
24008;SDS011;12217;50.792;4.372;2022-08-25T08:37:47;5.68;;;3.08;;
24008;SDS011;12217;50.792;4.372;2022-08-25T08:40:17;5.20;;;3.05;;
24008;SDS011;12217;50.792;4.372;2022-08-25T08:42:57;6.30;;;2.75;;
24008;SDS011;12217;50.792;4.372;2022-08-25T08:45:32;10.68;;;2.88;;
24008;SDS011;12217;50.792;4.372;2022-08-25T08:50:42;8.75;;;2.90;;
24008;SDS011;12217;50.792;4.372;2022-08-25T08:53:24;6.00;;;2.63;;
24008;SDS011;12217;50.792;4.372;2022-08-25T08:55:57;4.72;;;3.05;;
24008;SDS011;12217;50.792;4.372;2022-08-25T08:58:27;6.28;;;2.70;;
24008;SDS011;12217;50.792;4.372;2022-08-25T09:01:05;6.00;;;4.30;;
24008;SDS011;12217;50.792;4.372;2022-08-25T09:03:36;4.90;;;3.20;;
24008;SDS011;12217;50.792;4.372;2022-08-25T09:06:04;6.70;;;2.65;;
24008;SDS011;12217;50.792;4.372;2022-08-25T09:08:41;4.43;;;2.70;;
24008;SDS011;12217;50.792;4.372;2022-08-25T09:13:52;9.02;;;2.83;;
24008;SDS011;12217;50.792;4.372;2022-08-25T09:16:35;4.22;;;2.45;;
24008;SDS011;12217;50.792;4.372;2022-08-25T09:30:47;4.63;;;2.83;;
24008;SDS011;12217;50.792;4.372;2022-08-25T09:33:19;5.22;;;2.38;;
24008;SDS011;12217;50.792;4.372;2022-08-25T09:35:46;5.28;;;2.70;;
24008;SDS011;12217;50.792;4.372;2022-08-25T09:38:15;6.03;;;2.63;;
24008;SDS011;12217;50.792;4.372;2022-08-25T09:40:44;9.80;;;2.63;;
24008;SDS011;12217;50.792;4.372;2022-08-25T09:46:01;3.42;;;2.28;;
24008;SDS011;12217;50.792;4.372;2022-08-25T09:48:48;4.40;;;2.35;;
24008;SDS011;12217;50.792;4.372;2022-08-25T09:56:28;2.70;;;2.50;;
24008;SDS011;12217;50.792;4.372;2022-08-25T09:59:17;9.13;;;2.30;;
24008;SDS011;12217;50.792;4.372;2022-08-25T10:01:54;4.57;;;2.30;;
24008;SDS011;12217;50.792;4.372;2022-08-25T10:04:25;6.45;;;2.10;;
24008;SDS011;12217;50.792;4.372;2022-08-25T10:06:52;2.63;;;2.25;;
24008;SDS011;12217;50.792;4.372;2022-08-25T10:09:30;4.10;;;2.53;;
24008;SDS011;12217;50.792;4.372;2022-08-25T10:12:13;9.63;;;2.22;;
24008;SDS011;12217;50.792;4.372;2022-08-25T10:14:48;3.58;;;2.00;;
24008;SDS011;12217;50.792;4.372;2022-08-25T10:17:23;8.00;;;2.25;;
24008;SDS011;12217;50.792;4.372;2022-08-25T10:19:52;4.25;;;2.42;;
24008;SDS011;12217;50.792;4.372;2022-08-25T10:24:50;2.70;;;2.10;;
24008;SDS011;12217;50.792;4.372;2022-08-25T10:35:25;6.50;;;2.17;;
24008;SDS011;12217;50.792;4.372;2022-08-25T10:46:33;3.25;;;2.17;;
24008;SDS011;12217;50.792;4.372;2022-08-25T10:49:23;2.90;;;2.22;;
24008;SDS011;12217;50.792;4.372;2022-08-25T10:52:12;5.45;;;2.40;;
24008;SDS011;12217;50.792;4.372;2022-08-25T10:57:37;6.47;;;2.38;;
24008;SDS011;12217;50.792;4.372;2022-08-25T11:00:17;4.65;;;2.22;;
24008;SDS011;12217;50.792;4.372;2022-08-25T11:02:53;5.07;;;2.30;;
24008;SDS011;12217;50.792;4.372;2022-08-25T11:08:23;3.30;;;2.30;;
24008;SDS011;12217;50.792;4.372;2022-08-25T11:13:59;5.53;;;2.30;;
24008;SDS011;12217;50.792;4.372;2022-08-25T11:16:39;3.58;;;2.60;;
24008;SDS011;12217;50.792;4.372;2022-08-25T11:19:14;3.05;;;2.20;;
24008;SDS011;12217;50.792;4.372;2022-08-25T11:25:01;6.65;;;2.53;;
24008;SDS011;12217;50.792;4.372;2022-08-25T11:30:28;2.30;;;2.10;;
24008;SDS011;12217;50.792;4.372;2022-08-25T11:32:54;3.35;;;2.38;;
24008;SDS011;12217;50.792;4.372;2022-08-25T11:36:13;4.63;;;2.47;;
24008;SDS011;12217;50.792;4.372;2022-08-25T11:40:54;3.63;;;2.50;;
24008;SDS011;12217;50.792;4.372;2022-08-25T11:43:47;2.60;;;2.40;;
24008;SDS011;12217;50.792;4.372;2022-08-25T11:49:27;4.10;;;2.13;;
24008;SDS011;12217;50.792;4.372;2022-08-25T11:51:59;3.90;;;2.40;;
24008;SDS011;12217;50.792;4.372;2022-08-25T11:56:55;4.22;;;2.13;;
24008;SDS011;12217;50.792;4.372;2022-08-25T12:02:47;4.18;;;2.30;;
24008;SDS011;12217;50.792;4.372;2022-08-25T12:10:13;2.85;;;2.05;;
24008;SDS011;12217;50.792;4.372;2022-08-25T12:17:47;3.50;;;2.22;;
24008;SDS011;12217;50.792;4.372;2022-08-25T12:26:44;2.38;;;2.10;;
24008;SDS011;12217;50.792;4.372;2022-08-25T12:36:57;3.97;;;2.35;;
24008;SDS011;12217;50.792;4.372;2022-08-25T12:39:35;7.18;;;2.40;;
24008;SDS011;12217;50.792;4.372;2022-08-25T12:42:06;3.25;;;2.13;;
24008;SDS011;12217;50.792;4.372;2022-08-25T12:47:49;4.60;;;2.30;;
24008;SDS011;12217;50.792;4.372;2022-08-25T12:53:17;5.88;;;2.25;;
24008;SDS011;12217;50.792;4.372;2022-08-25T12:55:59;4.72;;;2.05;;
24008;SDS011;12217;50.792;4.372;2022-08-25T12:58:34;2.70;;;2.22;;
24008;SDS011;12217;50.792;4.372;2022-08-25T13:01:46;4.18;;;2.10;;
24008;SDS011;12217;50.792;4.372;2022-08-25T13:08:05;2.70;;;2.50;;
24008;SDS011;12217;50.792;4.372;2022-08-25T13:11:08;3.90;;;2.30;;
24008;SDS011;12217;50.792;4.372;2022-08-25T13:14:05;3.72;;;2.47;;
24008;SDS011;12217;50.792;4.372;2022-08-25T13:16:32;3.33;;;1.90;;
24008;SDS011;12217;50.792;4.372;2022-08-25T13:18:58;2.92;;;2.10;;
24008;SDS011;12217;50.792;4.372;2022-08-25T13:21:36;4.30;;;2.45;;
24008;SDS011;12217;50.792;4.372;2022-08-25T13:24:40;7.63;;;2.40;;
24008;SDS011;12217;50.792;4.372;2022-08-25T13:27:01;4.13;;;2.38;;
24008;SDS011;12217;50.792;4.372;2022-08-25T13:29:30;2.53;;;2.33;;
24008;SDS011;12217;50.792;4.372;2022-08-25T13:31:58;3.88;;;2.20;;
24008;SDS011;12217;50.792;4.372;2022-08-25T13:34:31;6.15;;;2.40;;
24008;SDS011;12217;50.792;4.372;2022-08-25T13:37:05;6.55;;;2.25;;
24008;SDS011;12217;50.792;4.372;2022-08-25T13:43:00;4.50;;;2.20;;
24008;SDS011;12217;50.792;4.372;2022-08-25T13:45:39;2.83;;;2.28;;
24008;SDS011;12217;50.792;4.372;2022-08-25T13:48:10;3.88;;;2.20;;
24008;SDS011;12217;50.792;4.372;2022-08-25T13:53:13;4.22;;;2.10;;
24008;SDS011;12217;50.792;4.372;2022-08-25T13:55:49;4.82;;;2.30;;
24008;SDS011;12217;50.792;4.372;2022-08-25T13:58:27;3.97;;;2.08;;
24008;SDS011;12217;50.792;4.372;2022-08-25T14:06:20;4.38;;;2.40;;
24008;SDS011;12217;50.792;4.372;2022-08-25T14:11:58;6.38;;;2.42;;
24008;SDS011;12217;50.792;4.372;2022-08-25T14:19:18;5.05;;;2.10;;
24008;SDS011;12217;50.792;4.372;2022-08-25T14:21:47;8.73;;;4.18;;
24008;SDS011;12217;50.792;4.372;2022-08-25T14:24:15;12.35;;;5.18;;
24008;SDS011;12217;50.792;4.372;2022-08-25T14:26:42;15.02;;;4.93;;
24008;SDS011;12217;50.792;4.372;2022-08-25T14:29:09;10.05;;;5.22;;
24008;SDS011;12217;50.792;4.372;2022-08-25T14:31:39;14.40;;;4.60;;
24008;SDS011;12217;50.792;4.372;2022-08-25T14:34:14;11.02;;;5.03;;
24008;SDS011;12217;50.792;4.372;2022-08-25T14:36:43;12.07;;;5.00;;
24008;SDS011;12217;50.792;4.372;2022-08-25T14:39:10;9.52;;;5.05;;
24008;SDS011;12217;50.792;4.372;2022-08-25T14:41:37;7.40;;;4.40;;
24008;SDS011;12217;50.792;4.372;2022-08-25T14:44:05;9.07;;;5.40;;
24008;SDS011;12217;50.792;4.372;2022-08-25T14:46:32;11.15;;;5.45;;
24008;SDS011;12217;50.792;4.372;2022-08-25T14:49:05;10.43;;;5.20;;
24008;SDS011;12217;50.792;4.372;2022-08-25T14:51:34;9.40;;;4.80;;
24008;SDS011;12217;50.792;4.372;2022-08-25T14:54:04;6.82;;;5.40;;
24008;SDS011;12217;50.792;4.372;2022-08-25T14:56:31;13.60;;;5.18;;
24008;SDS011;12217;50.792;4.372;2022-08-25T14:58:59;6.68;;;4.90;;
24008;SDS011;12217;50.792;4.372;2022-08-25T15:01:25;12.05;;;5.00;;
24008;SDS011;12217;50.792;4.372;2022-08-25T15:03:53;11.07;;;4.97;;
24008;SDS011;12217;50.792;4.372;2022-08-25T15:06:21;9.23;;;5.20;;
24008;SDS011;12217;50.792;4.372;2022-08-25T15:08:47;9.13;;;4.63;;
24008;SDS011;12217;50.792;4.372;2022-08-25T15:11:31;8.52;;;4.90;;
24008;SDS011;12217;50.792;4.372;2022-08-25T15:13:57;14.70;;;5.00;;
24008;SDS011;12217;50.792;4.372;2022-08-25T15:16:31;11.05;;;4.90;;
24008;SDS011;12217;50.792;4.372;2022-08-25T15:18:57;6.25;;;4.82;;
24008;SDS011;12217;50.792;4.372;2022-08-25T15:21:23;5.32;;;4.47;;
24008;SDS011;12217;50.792;4.372;2022-08-25T15:23:49;7.30;;;4.25;;
24008;SDS011;12217;50.792;4.372;2022-08-25T15:26:14;8.52;;;4.40;;
24008;SDS011;12217;50.792;4.372;2022-08-25T15:28:44;11.77;;;6.25;;
24008;SDS011;12217;50.792;4.372;2022-08-25T15:31:12;11.27;;;5.50;;
24008;SDS011;12217;50.792;4.372;2022-08-25T15:33:39;10.70;;;5.70;;
24008;SDS011;12217;50.792;4.372;2022-08-25T15:36:13;13.15;;;7.20;;
24008;SDS011;12217;50.792;4.372;2022-08-25T15:38:40;13.02;;;6.00;;
24008;SDS011;12217;50.792;4.372;2022-08-25T15:41:10;7.63;;;6.27;;
24008;SDS011;12217;50.792;4.372;2022-08-25T15:43:40;13.73;;;7.47;;
24008;SDS011;12217;50.792;4.372;2022-08-25T15:46:07;8.90;;;7.43;;
24008;SDS011;12217;50.792;4.372;2022-08-25T15:48:33;11.38;;;8.82;;
24008;SDS011;12217;50.792;4.372;2022-08-25T15:50:59;13.52;;;8.43;;
24008;SDS011;12217;50.792;4.372;2022-08-25T15:53:26;10.35;;;7.53;;
24008;SDS011;12217;50.792;4.372;2022-08-25T15:55:54;9.95;;;8.02;;
24008;SDS011;12217;50.792;4.372;2022-08-25T15:58:22;10.85;;;8.35;;
24008;SDS011;12217;50.792;4.372;2022-08-25T16:00:49;13.40;;;7.30;;
24008;SDS011;12217;50.792;4.372;2022-08-25T16:03:15;11.07;;;7.80;;
24008;SDS011;12217;50.792;4.372;2022-08-25T16:05:44;10.63;;;9.30;;
24008;SDS011;12217;50.792;4.372;2022-08-25T16:08:14;11.77;;;8.77;;
24008;SDS011;12217;50.792;4.372;2022-08-25T16:10:41;10.18;;;7.65;;
24008;SDS011;12217;50.792;4.372;2022-08-25T16:13:07;10.90;;;8.73;;
24008;SDS011;12217;50.792;4.372;2022-08-25T16:15:35;12.90;;;8.27;;
24008;SDS011;12217;50.792;4.372;2022-08-25T16:18:01;13.63;;;8.77;;
24008;SDS011;12217;50.792;4.372;2022-08-25T16:20:30;12.90;;;8.52;;
24008;SDS011;12217;50.792;4.372;2022-08-25T16:22:58;11.85;;;8.30;;
24008;SDS011;12217;50.792;4.372;2022-08-25T16:25:26;8.48;;;7.45;;
24008;SDS011;12217;50.792;4.372;2022-08-25T16:27:52;12.65;;;8.30;;
24008;SDS011;12217;50.792;4.372;2022-08-25T16:30:19;10.60;;;7.97;;
24008;SDS011;12217;50.792;4.372;2022-08-25T16:32:45;10.30;;;6.65;;
24008;SDS011;12217;50.792;4.372;2022-08-25T16:35:15;12.40;;;10.30;;
24008;SDS011;12217;50.792;4.372;2022-08-25T16:37:41;10.43;;;8.73;;
24008;SDS011;12217;50.792;4.372;2022-08-25T16:40:06;11.50;;;8.38;;
24008;SDS011;12217;50.792;4.372;2022-08-25T16:42:34;12.90;;;8.18;;
24008;SDS011;12217;50.792;4.372;2022-08-25T16:45:00;11.10;;;9.18;;
24008;SDS011;12217;50.792;4.372;2022-08-25T16:47:25;10.45;;;8.32;;
24008;SDS011;12217;50.792;4.372;2022-08-25T16:49:51;11.20;;;7.50;;
24008;SDS011;12217;50.792;4.372;2022-08-25T16:52:16;12.25;;;7.60;;
24008;SDS011;12217;50.792;4.372;2022-08-25T16:55:01;12.07;;;8.50;;
24008;SDS011;12217;50.792;4.372;2022-08-25T16:57:41;12.15;;;8.93;;
24008;SDS011;12217;50.792;4.372;2022-08-25T17:00:13;10.77;;;7.72;;
24008;SDS011;12217;50.792;4.372;2022-08-25T17:02:41;13.45;;;8.73;;
24008;SDS011;12217;50.792;4.372;2022-08-25T17:05:07;9.50;;;8.27;;
24008;SDS011;12217;50.792;4.372;2022-08-25T17:07:34;11.90;;;7.55;;
24008;SDS011;12217;50.792;4.372;2022-08-25T17:10:00;13.98;;;9.50;;